Time;durP1;ratioP1;P1;durP2;ratioP2;P2;SDS_P1;SDS_P2;PMS_P1;PMS_P2;Temp;Humidity;BMP_temperature;BMP_pressure;BME280_temperature;BME280_humidity;BME280_pressure;Samples;Min_cycle;Max_cycle;Signal;HPM_P1;HPM_P2
2021/12/11 00:01:53;;;;;;;27.27;14.65;;;;;;;-1.02;100.00;92851.69;4900343;29;20024;-87
2021/12/11 00:04:29;;;;;;;29.67;15.68;;;;;;;-1.02;100.00;92849.13;4899967;29;20350;-87
2021/12/11 00:06:56;;;;;;;32.97;16.23;;;;;;;-1.10;100.00;92850.28;4900037;29;20071;-87
2021/12/11 00:09:51;;;;;;;30.10;15.77;;;;;;;-1.03;100.00;92842.44;4900128;29;20426;-86
2021/12/11 00:12:24;;;;;;;27.70;15.10;;;;;;;-1.10;100.00;92857.19;4901297;29;20465;-86
2021/12/11 00:14:55;;;;;;;31.90;15.18;;;;;;;-1.22;100.00;92867.56;4904215;29;20035;-86
2021/12/11 00:17:29;;;;;;;29.88;14.73;;;;;;;-1.16;100.00;92856.34;4903440;29;20422;-86
2021/12/11 00:19:55;;;;;;;30.05;14.60;;;;;;;-1.10;100.00;92863.13;4903609;29;20119;-87
2021/12/11 00:22:23;;;;;;;26.40;14.10;;;;;;;-1.32;100.00;92866.34;4903779;29;20077;-87
2021/12/11 00:24:48;;;;;;;25.80;13.13;;;;;;;-1.14;100.00;92867.19;4903316;29;20087;-86
2021/12/11 00:27:20;;;;;;;23.13;12.25;;;;;;;-1.16;100.00;92866.63;4903412;29;20052;-86
2021/12/11 00:29:47;;;;;;;20.60;10.82;;;;;;;-1.17;100.00;92867.63;4888159;29;20031;-86
2021/12/11 00:32:23;;;;;;;20.08;10.73;;;;;;;-1.17;100.00;92867.63;4884558;29;20447;-87
2021/12/11 00:34:52;;;;;;;21.10;10.25;;;;;;;-1.14;100.00;92874.91;4892097;29;20107;-86
2021/12/11 00:37:19;;;;;;;21.05;10.68;;;;;;;-1.14;100.00;92870.53;4896059;29;20048;-86
2021/12/11 00:39:48;;;;;;;23.65;11.65;;;;;;;-1.20;100.00;92868.88;4903178;29;20115;-87
2021/12/11 00:42:14;;;;;;;23.70;11.82;;;;;;;-1.16;100.00;92871.75;4904130;29;20394;-86
2021/12/11 00:44:51;;;;;;;22.33;11.55;;;;;;;-1.16;100.00;92879.47;4902555;29;20028;-86
2021/12/11 00:47:27;;;;;;;24.35;12.35;;;;;;;-1.13;100.00;92881.59;4887544;29;20138;-87
2021/12/11 00:49:59;;;;;;;22.33;11.23;;;;;;;-1.12;100.00;92878.00;4902948;29;20442;-87
2021/12/11 00:52:32;;;;;;;19.00;9.93;;;;;;;-1.12;100.00;92879.78;4903533;29;20059;-87
2021/12/11 00:55:34;;;;;;;20.05;10.73;;;;;;;-1.17;100.00;92880.47;4902449;29;20040;-87
2021/12/11 00:58:27;;;;;;;23.80;11.68;;;;;;;-1.17;100.00;92885.63;4896824;29;20024;-87
2021/12/11 01:01:00;;;;;;;25.63;12.43;;;;;;;-1.16;100.00;92882.81;4888088;29;20041;-87
2021/12/11 01:03:39;;;;;;;24.65;12.63;;;;;;;-1.15;100.00;92886.16;4900005;29;20073;-86
2021/12/11 01:06:13;;;;;;;25.58;12.57;;;;;;;-1.08;100.00;92880.88;4903663;29;20077;-87
2021/12/11 01:08:43;;;;;;;22.60;11.75;;;;;;;-1.07;100.00;92893.53;4903934;29;20043;-86
2021/12/11 01:11:13;;;;;;;19.63;10.50;;;;;;;-1.04;100.00;92892.28;4897809;29;20122;-87
2021/12/11 01:13:44;;;;;;;17.98;9.20;;;;;;;-1.00;100.00;92891.59;4901918;29;20445;-87
2021/12/11 01:16:13;;;;;;;13.02;7.20;;;;;;;-1.08;100.00;92894.53;4902450;29;20024;-87
2021/12/11 01:18:42;;;;;;;14.48;7.70;;;;;;;-1.11;100.00;92902.72;4902669;29;20029;-87
2021/12/11 01:21:43;;;;;;;13.38;7.20;;;;;;;-1.18;100.00;92896.91;4902713;29;20028;-86
2021/12/11 01:24:16;;;;;;;14.30;7.40;;;;;;;-1.10;100.00;92900.91;4885075;29;20040;-87
2021/12/11 01:26:49;;;;;;;12.38;6.88;;;;;;;-1.16;100.00;92905.16;4896412;29;20134;-87
2021/12/11 01:29:16;;;;;;;11.70;6.60;;;;;;;-1.20;100.00;92909.22;4903168;29;20091;-86
2021/12/11 01:31:42;;;;;;;11.18;6.32;;;;;;;-1.20;100.00;92904.88;4902572;29;20119;-87
2021/12/11 01:34:08;;;;;;;11.00;6.55;;;;;;;-1.15;100.00;92907.53;4893152;29;20127;-87
2021/12/11 01:36:34;;;;;;;10.88;6.07;;;;;;;-1.30;100.00;92904.69;4886136;29;20116;-86
2021/12/11 01:39:04;;;;;;;11.82;6.82;;;;;;;-1.24;100.00;92924.31;4902046;29;20331;-87
2021/12/11 01:41:30;;;;;;;17.42;7.20;;;;;;;-1.18;100.00;92920.03;4900091;29;20383;-86
2021/12/11 01:43:59;;;;;;;15.00;7.88;;;;;;;-1.18;100.00;92912.34;4886231;29;20088;-87
2021/12/11 01:46:26;;;;;;;14.48;7.75;;;;;;;-1.13;100.00;92915.00;4886123;29;20052;-86
2021/12/11 01:49:00;;;;;;;17.88;7.60;;;;;;;-1.18;100.00;92918.28;4886205;29;20056;-88
2021/12/11 01:52:00;;;;;;;13.23;7.43;;;;;;;-1.18;100.00;92920.84;4886550;29;20032;-87
2021/12/11 01:54:31;;;;;;;13.18;7.15;;;;;;;-1.20;100.00;92919.50;4870822;29;20032;-88
2021/12/11 01:57:01;;;;;;;11.93;6.40;;;;;;;-1.17;100.00;92919.81;4886476;29;20477;-87
2021/12/11 01:59:33;;;;;;;12.05;6.80;;;;;;;-1.15;100.00;92917.81;4886708;29;20060;-88
2021/12/11 02:02:18;;;;;;;9.60;5.60;;;;;;;-1.18;100.00;92923.41;4903052;29;20072;-87
2021/12/11 02:04:46;;;;;;;9.52;5.50;;;;;;;-1.18;100.00;92932.91;4885484;29;20067;-88
2021/12/11 02:07:18;;;;;;;9.57;5.00;;;;;;;-1.17;100.00;92924.97;4870639;29;20434;-87
2021/12/11 02:09:50;;;;;;;8.68;4.75;;;;;;;-1.18;100.00;92917.47;4901929;29;20123;-87
2021/12/11 02:12:38;;;;;;;8.63;5.15;;;;;;;-1.31;100.00;92918.53;4901272;29;20032;-87
2021/12/11 02:15:12;;;;;;;8.65;5.03;;;;;;;-1.30;100.00;92928.56;4885894;29;20028;-87
2021/12/11 02:17:48;;;;;;;11.90;6.25;;;;;;;-1.22;100.00;92916.38;4886225;29;20033;-88
2021/12/11 02:20:19;;;;;;;8.23;5.07;;;;;;;-1.21;100.00;92915.38;4881919;29;20024;-87
2021/12/11 02:22:47;;;;;;;8.20;4.68;;;;;;;-1.33;100.00;92905.91;4901088;29;20025;-87
2021/12/11 02:25:18;;;;;;;11.80;5.97;;;;;;;-1.13;100.00;92907.31;4896835;29;20438;-87
2021/12/11 02:27:47;;;;;;;12.20;6.13;;;;;;;-1.18;100.00;92902.84;4885419;29;20028;-88
2021/12/11 02:30:24;;;;;;;10.45;5.93;;;;;;;-1.25;100.00;92899.63;4901363;29;20038;-87
2021/12/11 02:33:03;;;;;;;10.50;6.15;;;;;;;-1.22;100.00;92911.25;4885670;29;20346;-87
2021/12/11 02:36:11;;;;;;;10.15;5.55;;;;;;;-1.14;100.00;92903.94;4884738;29;20036;-88
2021/12/11 02:38:50;;;;;;;10.45;6.15;;;;;;;-1.25;100.00;92902.19;4844379;29;20034;-88
2021/12/11 02:41:21;;;;;;;11.60;6.30;;;;;;;-1.18;100.00;92908.00;4882134;29;20033;-87
2021/12/11 02:44:04;;;;;;;10.50;5.97;;;;;;;-1.15;100.00;92910.09;4885325;29;20040;-88
2021/12/11 02:46:32;;;;;;;11.43;6.60;;;;;;;-1.23;100.00;92905.31;4885179;29;20079;-88
2021/12/11 02:49:06;;;;;;;11.18;6.13;;;;;;;-1.17;100.00;92913.91;4900964;29;20032;-88
2021/12/11 02:51:36;;;;;;;11.15;6.57;;;;;;;-1.15;100.00;92917.00;4883410;29;20438;-88
2021/12/11 02:54:18;;;;;;;14.00;7.72;;;;;;;-1.13;100.00;92915.00;4885462;29;20028;-87
2021/12/11 02:56:58;;;;;;;14.93;8.43;;;;;;;-1.14;100.00;92923.72;4884541;29;20084;-88
2021/12/11 02:59:28;;;;;;;15.45;8.65;;;;;;;-1.21;100.00;92935.94;4882985;29;20076;-88
2021/12/11 03:02:08;;;;;;;19.77;9.95;;;;;;;-1.16;100.00;92936.81;4885798;29;20020;-87
2021/12/11 03:04:38;;;;;;;32.60;13.13;;;;;;;-1.20;100.00;92934.91;4900464;29;20033;-87
2021/12/11 03:07:08;;;;;;;27.02;13.13;;;;;;;-1.12;100.00;92934.56;4885856;29;20438;-88
2021/12/11 03:09:37;;;;;;;256.70;29.85;;;;;;;-1.08;100.00;92943.38;4885539;29;20123;-88
2021/12/11 03:12:06;;;;;;;38.28;17.50;;;;;;;-1.20;100.00;92950.34;4885069;29;20390;-88
2021/12/11 03:14:32;;;;;;;36.67;16.95;;;;;;;-1.25;100.00;92948.44;4883057;29;20033;-87
2021/12/11 03:16:58;;;;;;;46.20;18.80;;;;;;;-1.22;100.00;92950.59;4885085;29;20035;-88
2021/12/11 03:19:29;;;;;;;35.22;16.65;;;;;;;-1.14;100.00;92952.00;4885135;29;20028;-88
2021/12/11 03:21:54;;;;;;;38.78;17.75;;;;;;;-1.13;100.00;92951.00;4885584;29;20316;-88
2021/12/11 03:24:20;;;;;;;35.08;16.30;;;;;;;-1.15;100.00;92953.00;4869747;29;20035;-88
2021/12/11 03:26:49;;;;;;;36.88;17.30;;;;;;;-1.17;100.00;92942.97;4884708;29;20120;-88
2021/12/11 03:29:14;;;;;;;33.78;17.30;;;;;;;-1.20;100.00;92940.84;4885151;29;20055;-88
2021/12/11 03:31:40;;;;;;;34.08;16.38;;;;;;;-1.09;100.00;92972.66;4899670;29;20033;-88
2021/12/11 03:34:09;;;;;;;34.60;17.13;;;;;;;-1.15;100.00;92966.63;4900831;29;20108;-88
2021/12/11 03:36:36;;;;;;;39.72;17.50;;;;;;;-1.12;100.00;92962.84;4869108;29;20338;-87
2021/12/11 03:39:26;;;;;;;39.45;18.27;;;;;;;-1.05;100.00;92960.91;4900631;29;20024;-88
2021/12/11 03:41:53;;;;;;;35.72;15.57;;;;;;;-1.10;100.00;92967.72;4899897;29;20037;-87
2021/12/11 03:44:19;;;;;;;32.50;16.15;;;;;;;-1.12;100.00;92973.13;4881655;29;20084;-88
2021/12/11 03:46:47;;;;;;;35.60;17.25;;;;;;;-1.17;100.00;92973.00;4886528;29;20032;-88
2021/12/11 03:49:16;;;;;;;31.63;16.02;;;;;;;-1.13;100.00;92966.41;4888754;29;20028;-88
2021/12/11 03:51:44;;;;;;;31.15;16.08;;;;;;;-1.23;100.00;92979.84;4904181;29;20040;-88
2021/12/11 03:54:13;;;;;;;30.70;15.18;;;;;;;-1.11;100.00;92977.25;4904153;29;20036;-88
2021/12/11 03:56:39;;;;;;;35.85;15.88;;;;;;;-1.11;100.00;92982.41;4888095;29;20320;-87
2021/12/11 03:59:10;;;;;;;24.85;12.23;;;;;;;-1.15;100.00;92991.56;4888719;29;20036;-88
2021/12/11 04:01:40;;;;;;;27.45;13.02;;;;;;;-1.09;100.00;92985.50;4889009;29;20040;-88
2021/12/11 04:04:40;;;;;;;29.63;13.32;;;;;;;-1.06;100.00;92990.19;4888739;29;20387;-88
2021/12/11 04:07:09;;;;;;;27.02;13.05;;;;;;;-1.05;100.00;92990.97;4888208;29;20387;-88
2021/12/11 04:09:35;;;;;;;26.95;11.60;;;;;;;-1.08;100.00;92989.66;4903864;29;20068;-87
2021/12/11 04:12:03;;;;;;;26.05;12.85;;;;;;;-1.09;100.00;92984.72;4903518;29;20035;-87
2021/12/11 04:14:32;;;;;;;23.65;11.73;;;;;;;-1.07;100.00;92996.34;4887708;29;20426;-87
2021/12/11 04:16:58;;;;;;;23.42;11.90;;;;;;;-1.10;100.00;92996.00;4888121;29;20092;-87
2021/12/11 04:19:25;;;;;;;22.83;11.40;;;;;;;-1.12;100.00;92995.47;4888090;29;20051;-87
2021/12/11 04:21:51;;;;;;;20.95;10.85;;;;;;;-1.11;100.00;93002.97;4887754;29;20059;-87
2021/12/11 04:24:20;;;;;;;25.00;12.02;;;;;;;-1.11;100.00;93004.72;4903841;29;20060;-87
2021/12/11 04:26:45;;;;;;;22.60;11.55;;;;;;;-1.13;100.00;93020.41;4887335;29;20024;-87
2021/12/11 04:29:12;;;;;;;26.85;13.55;;;;;;;-1.15;100.00;93010.34;4888086;29;20478;-88
2021/12/11 04:31:42;;;;;;;24.95;12.10;;;;;;;-1.18;100.00;93007.44;4887835;29;20355;-88
2021/12/11 04:34:10;;;;;;;24.10;11.45;;;;;;;-1.31;100.00;93016.19;4888373;29;20043;-87
2021/12/11 04:36:39;;;;;;;23.40;11.73;;;;;;;-1.32;100.00;93017.19;4904025;29;20127;-88
2021/12/11 04:39:08;;;;;;;21.83;11.02;;;;;;;-1.33;100.00;93013.84;4887747;29;20029;-88
2021/12/11 04:41:42;;;;;;;23.88;10.52;;;;;;;-1.33;100.00;93026.69;4903586;29;20039;-88
2021/12/11 04:44:18;;;;;;;23.48;10.68;;;;;;;-1.43;100.00;93014.41;4888402;29;20060;-87
2021/12/11 04:46:44;;;;;;;24.02;12.10;;;;;;;-1.42;100.00;93031.38;4887124;29;20060;-87
2021/12/11 04:49:17;;;;;;;22.10;11.00;;;;;;;-1.50;100.00;93026.59;4887948;29;20063;-88
2021/12/11 04:54:48;;;;;;;;;;;;;;;-1.50;100.00;93049.72;4890055;29;20033;-88
2021/12/11 05:00:07;;;;;;;23.52;11.55;;;;;;;-1.53;100.00;93055.28;4889318;29;20068;-87
2021/12/11 05:02:58;;;;;;;31.00;13.43;;;;;;;-1.53;100.00;93052.72;4903194;29;20351;-87
2021/12/11 05:10:25;;;;;;;26.52;12.57;;;;;;;-1.62;100.00;93057.41;4887899;29;20472;-87
2021/12/11 05:12:55;;;;;;;28.80;13.82;;;;;;;-1.61;100.00;93060.78;4887546;29;20036;-87
2021/12/11 05:15:27;;;;;;;30.92;12.75;;;;;;;-1.62;100.00;93070.25;4886837;29;20080;-87
2021/12/11 05:17:53;;;;;;;28.90;12.45;;;;;;;-1.61;100.00;93069.25;4887147;29;20035;-87
2021/12/11 05:20:22;;;;;;;29.33;12.82;;;;;;;-1.77;100.00;93075.06;4887029;29;20032;-87
2021/12/11 05:22:49;;;;;;;25.95;12.30;;;;;;;-1.70;100.00;93075.75;4902511;29;20028;-87
2021/12/11 05:25:15;;;;;;;26.95;12.43;;;;;;;-1.91;100.00;93079.63;4898016;29;20032;-88
2021/12/11 05:27:42;;;;;;;26.23;12.75;;;;;;;-1.76;100.00;93082.56;4886351;29;20033;-88
2021/12/11 05:30:16;;;;;;;22.50;11.15;;;;;;;-1.88;100.00;93087.66;4889621;29;20044;-87
2021/12/11 05:32:42;;;;;;;23.05;11.48;;;;;;;-1.88;100.00;93087.66;4893750;29;20047;-87
2021/12/11 05:35:08;;;;;;;26.02;11.75;;;;;;;-1.96;100.00;93098.25;4906888;29;20032;-87
2021/12/11 05:37:34;;;;;;;28.73;11.82;;;;;;;-1.97;100.00;93093.34;4901851;29;20422;-87
2021/12/11 05:40:00;;;;;;;26.15;13.20;;;;;;;-1.94;100.00;93091.13;4899821;29;20035;-87
2021/12/11 05:42:25;;;;;;;23.80;12.32;;;;;;;-1.90;100.00;93094.03;4905542;29;20024;-88
2021/12/11 05:44:51;;;;;;;27.70;13.00;;;;;;;-2.08;100.00;93095.69;4901978;29;20028;-88
2021/12/11 05:47:17;;;;;;;28.23;13.10;;;;;;;-1.97;100.00;93099.25;4896090;29;20040;-87
2021/12/11 05:49:45;;;;;;;30.85;13.73;;;;;;;-2.03;100.00;93095.78;4901531;29;20028;-87
2021/12/11 05:52:11;;;;;;;31.10;14.82;;;;;;;-1.97;100.00;93103.59;4886511;29;20032;-87
2021/12/11 05:54:39;;;;;;;26.58;13.20;;;;;;;-2.05;100.00;93097.78;4886093;29;20339;-87
2021/12/11 05:57:08;;;;;;;25.45;13.43;;;;;;;-1.99;100.00;93096.13;4886510;29;20130;-87
2021/12/11 05:59:34;;;;;;;27.70;13.00;;;;;;;-1.87;100.00;93104.63;4870741;29;20346;-87
2021/12/11 06:02:08;;;;;;;24.35;12.10;;;;;;;-2.01;100.00;93101.47;4886265;29;20024;-88
2021/12/11 06:04:35;;;;;;;27.92;12.50;;;;;;;-2.14;100.00;93109.38;4901414;29;20064;-87
2021/12/11 06:07:03;;;;;;;27.73;12.70;;;;;;;-2.24;100.00;93111.66;4886157;29;20461;-88
2021/12/11 06:09:29;;;;;;;28.65;13.15;;;;;;;-2.42;100.00;93121.00;4885161;29;20312;-88
2021/12/11 06:11:59;;;;;;;26.15;12.65;;;;;;;-2.34;100.00;93123.25;4886299;29;20427;-87
2021/12/11 06:14:26;;;;;;;32.03;13.20;;;;;;;-2.45;100.00;93121.44;4885711;29;20045;-88
2021/12/11 06:16:54;;;;;;;27.35;12.20;;;;;;;-2.41;100.00;93130.25;4901248;29;20035;-87
2021/12/11 06:19:21;;;;;;;26.60;12.80;;;;;;;-2.45;100.00;93124.00;4870633;29;20312;-87
2021/12/11 06:21:50;;;;;;;29.20;11.93;;;;;;;-2.19;100.00;93119.50;4870517;29;20375;-87
2021/12/11 06:24:16;;;;;;;23.88;10.65;;;;;;;-2.16;100.00;93129.34;4901668;29;20110;-88
2021/12/11 06:26:42;;;;;;;25.13;12.15;;;;;;;-2.27;100.00;93133.44;4885367;29;20327;-88
2021/12/11 06:29:07;;;;;;;23.63;10.75;;;;;;;-2.39;100.00;93135.94;4885746;29;20088;-87
2021/12/11 06:31:33;;;;;;;22.15;10.40;;;;;;;-2.27;100.00;93141.13;4885744;29;20036;-88
2021/12/11 06:33:58;;;;;;;17.27;8.52;;;;;;;-2.14;100.00;93128.13;4882803;29;20029;-88
2021/12/11 06:36:26;;;;;;;19.63;9.63;;;;;;;-2.28;100.00;93140.34;4874746;29;20431;-87
2021/12/11 06:38:56;;;;;;;16.73;8.52;;;;;;;-2.30;100.00;93144.91;4885775;29;20032;-88
2021/12/11 06:41:25;;;;;;;16.55;8.70;;;;;;;-2.27;100.00;93143.69;4885582;29;20048;-87
2021/12/11 06:43:51;;;;;;;18.67;8.10;;;;;;;-2.02;100.00;93141.00;4885832;29;20032;-87
2021/12/11 06:46:17;;;;;;;15.82;7.10;;;;;;;-2.13;100.00;93152.00;4885161;29;20033;-87
2021/12/11 06:48:43;;;;;;;14.48;6.57;;;;;;;-2.09;100.00;93155.69;4885604;29;20059;-88
2021/12/11 06:51:09;;;;;;;16.33;7.63;;;;;;;-2.11;100.00;93152.56;4885408;29;20449;-87
2021/12/11 06:53:46;;;;;;;14.10;7.35;;;;;;;-2.08;100.00;93151.34;4884108;29;20375;-88
2021/12/11 06:56:16;;;;;;;13.95;7.22;;;;;;;-1.90;100.00;93153.84;4885010;29;20034;-88
2021/12/11 06:58:41;;;;;;;15.45;7.00;;;;;;;-2.04;100.00;93158.41;4885096;29;20050;-87
2021/12/11 07:01:07;;;;;;;16.05;7.38;;;;;;;-2.06;100.00;93162.97;4882334;29;20036;-87
2021/12/11 07:03:33;;;;;;;29.23;15.95;;;;;;;-2.03;100.00;93172.00;4875904;29;20035;-88
2021/12/11 07:05:59;;;;;;;16.00;8.60;;;;;;;-2.05;100.00;93174.00;4884818;29;20028;-87
2021/12/11 07:08:26;;;;;;;13.57;6.95;;;;;;;-2.02;100.00;93165.84;4885548;29;20039;-88
2021/12/11 07:10:52;;;;;;;10.55;5.93;;;;;;;-2.04;100.00;93176.38;4885633;29;20188;-88
2021/12/11 07:13:17;;;;;;;12.88;6.07;;;;;;;-1.91;100.00;93184.88;4891940;29;20115;-87
2021/12/11 07:15:43;;;;;;;28.63;13.95;;;;;;;-1.90;100.00;93183.88;4887281;29;20110;-87
2021/12/11 07:18:09;;;;;;;41.40;17.83;;;;;;;-1.99;100.00;93185.97;4903870;29;20489;-88
2021/12/11 07:20:35;;;;;;;35.05;17.38;;;;;;;-1.98;100.00;93202.94;4917782;29;20339;-87
2021/12/11 07:23:01;;;;;;;49.00;21.50;;;;;;;-2.07;100.00;93214.50;4903835;29;20031;-88
2021/12/11 07:25:44;;;;;;;46.38;19.45;;;;;;;-2.15;100.00;93228.44;4916759;29;20031;-88
2021/12/11 07:28:11;;;;;;;279.88;105.40;;;;;;;-2.29;100.00;93222.69;4885244;29;20039;-88
2021/12/11 07:30:39;;;;;;;33.97;16.17;;;;;;;-2.32;100.00;93230.78;4901401;29;20032;-87
2021/12/11 07:33:05;;;;;;;59.58;22.20;;;;;;;-2.37;100.00;93240.91;4900480;29;20032;-88
2021/12/11 07:35:33;;;;;;;114.75;41.58;;;;;;;-2.45;100.00;93255.56;4883755;29;20036;-87
2021/12/11 07:37:59;;;;;;;74.75;29.98;;;;;;;-2.59;100.00;93247.25;4916278;29;20036;-87
2021/12/11 07:40:31;;;;;;;127.40;44.95;;;;;;;-2.32;100.00;93241.84;4901101;29;20032;-87
2021/12/11 07:42:56;;;;;;;43.60;18.42;;;;;;;-2.36;100.00;93255.31;4916010;29;20032;-87
2021/12/11 07:45:25;;;;;;;8.85;4.65;;;;;;;-2.11;100.00;93260.34;4899909;29;20028;-87
2021/12/11 07:47:51;;;;;;;79.70;29.35;;;;;;;-2.00;100.00;93264.00;4900502;29;20072;-87
2021/12/11 07:50:17;;;;;;;15.77;6.50;;;;;;;-2.00;100.00;93274.25;4896295;29;20052;-87
2021/12/11 07:52:43;;;;;;;10.70;5.25;;;;;;;-1.83;100.00;93276.22;4919282;29;20028;-87
2021/12/11 07:55:09;;;;;;;27.10;10.23;;;;;;;-1.52;100.00;93282.16;4902601;29;20035;-87
2021/12/11 07:57:36;;;;;;;13.48;6.10;;;;;;;-1.37;100.00;93286.88;4903515;29;20024;-87
2021/12/11 08:00:04;;;;;;;6.53;3.47;;;;;;;-1.12;100.00;93298.78;4903345;29;20066;-87
2021/12/11 08:02:30;;;;;;;7.30;3.58;;;;;;;-1.10;100.00;93305.28;4901429;29;20028;-87
2021/12/11 08:04:55;;;;;;;5.50;3.10;;;;;;;-0.88;100.00;93307.31;4884208;29;20029;-87
2021/12/11 08:07:21;;;;;;;14.13;5.63;;;;;;;-0.88;100.00;93320.19;4912064;29;20123;-87
2021/12/11 08:09:46;;;;;;;8.20;4.28;;;;;;;-0.80;100.00;93330.16;4918825;29;20052;-87
2021/12/11 08:12:12;;;;;;;18.70;7.07;;;;;;;-0.83;100.00;93333.19;4918919;29;20039;-87
2021/12/11 08:14:38;;;;;;;73.40;27.35;;;;;;;-0.80;100.00;93345.59;4918587;29;20413;-87
2021/12/11 08:17:06;;;;;;;32.70;13.43;;;;;;;-0.94;100.00;93341.66;4900284;29;20046;-87
2021/12/11 08:19:32;;;;;;;20.55;8.73;;;;;;;-1.00;100.00;93346.69;4884124;29;20434;-87
2021/12/11 08:22:00;;;;;;;127.40;43.45;;;;;;;-1.11;100.00;93352.56;4884633;29;20417;-87
2021/12/11 08:24:28;;;;;;;18.65;8.95;;;;;;;-0.97;100.00;93357.53;4897610;29;20024;-86
2021/12/11 08:26:57;;;;;;;17.25;8.90;;;;;;;-0.95;100.00;93360.66;4915273;29;20163;-87
2021/12/11 08:29:22;;;;;;;37.78;14.55;;;;;;;-0.79;100.00;93367.72;4916664;29;20079;-87
2021/12/11 08:31:50;;;;;;;103.43;35.58;;;;;;;-0.88;100.00;93374.19;4911143;29;20115;-87
2021/12/11 08:34:16;;;;;;;60.08;19.35;;;;;;;-0.75;100.00;93374.00;4902480;29;20031;-87
2021/12/11 08:36:43;;;;;;;104.00;32.72;;;;;;;-0.91;100.00;93379.78;4920486;29;20387;-87
2021/12/11 08:39:11;;;;;;;6.40;3.40;;;;;;;-0.63;100.00;93388.66;4917176;29;20040;-86
2021/12/11 08:41:38;;;;;;;41.33;14.10;;;;;;;-0.52;100.00;93390.47;4912703;29;20351;-88
2021/12/11 08:44:09;;;;;;;83.05;28.02;;;;;;;-0.55;100.00;93388.38;4910730;29;20043;-87
2021/12/11 08:46:36;;;;;;;19.77;9.18;;;;;;;-0.73;100.00;93396.94;4905823;29;20029;-87
2021/12/11 08:49:07;;;;;;;8.27;3.97;;;;;;;-0.57;100.00;93398.09;4906059;29;20028;-87
2021/12/11 08:51:41;;;;;;;12.05;5.10;;;;;;;-0.41;100.00;93411.31;4906011;29;20040;-87
2021/12/11 08:54:07;;;;;;;58.85;18.50;;;;;;;-0.30;100.00;93410.53;4921950;29;20453;-87
2021/12/11 08:56:35;;;;;;;7.95;3.70;;;;;;;-0.17;100.00;93417.25;4888745;29;20186;-87
2021/12/11 08:59:02;;;;;;;10.07;5.03;;;;;;;-0.16;100.00;93429.13;4906374;29;20028;-87
2021/12/11 09:01:42;;;;;;;25.50;10.60;;;;;;;-0.27;100.00;93430.69;4922965;29;20028;-87
2021/12/11 09:04:25;;;;;;;27.63;12.52;;;;;;;-0.17;100.00;93433.47;4918592;29;20040;-87
2021/12/11 09:06:58;;;;;;;20.48;8.95;;;;;;;-0.18;100.00;93444.78;4915506;29;20032;-87
2021/12/11 09:09:43;;;;;;;5.85;2.92;;;;;;;-0.07;100.00;93442.44;4905723;29;20028;-87
2021/12/11 09:12:34;;;;;;;8.30;4.38;;;;;;;0.08;100.00;93455.66;4918354;29;20044;-87
2021/12/11 09:15:15;;;;;;;50.05;13.32;;;;;;;0.04;100.00;93462.28;4896290;29;20068;-87
2021/12/11 09:17:52;;;;;;;29.95;11.45;;;;;;;0.05;100.00;93457.91;4921692;29;20038;-87
2021/12/11 09:20:52;;;;;;;17.17;8.90;;;;;;;-0.08;100.00;93471.78;4905831;29;20043;-87
2021/12/11 09:23:27;;;;;;;25.42;9.38;;;;;;;-0.02;100.00;93473.47;4921947;29;20078;-87
2021/12/11 09:26:02;;;;;;;58.45;22.75;;;;;;;0.06;100.00;93477.50;4898469;29;20088;-87
2021/12/11 09:28:32;;;;;;;15.20;6.57;;;;;;;0.16;100.00;93489.84;4887507;29;20037;-87
2021/12/11 09:31:01;;;;;;;14.05;6.45;;;;;;;0.08;100.00;93488.38;4899445;29;20422;-87
2021/12/11 09:33:31;;;;;;;12.75;5.55;;;;;;;0.08;100.00;93486.56;4922339;29;20036;-87
2021/12/11 09:36:08;;;;;;;7.05;3.25;;;;;;;0.15;100.00;93488.28;4917325;29;20033;-87
2021/12/11 09:38:45;;;;;;;11.02;5.18;;;;;;;0.11;100.00;93493.84;4917737;29;20355;-87
2021/12/11 09:41:20;;;;;;;6.03;2.85;;;;;;;0.30;100.00;93486.03;4886529;29;20036;-87
2021/12/11 09:43:49;;;;;;;4.93;2.88;;;;;;;0.32;100.00;93494.31;4921955;29;20345;-87
2021/12/11 09:46:22;;;;;;;6.47;2.63;;;;;;;0.66;100.00;93494.50;4916441;29;20039;-87
2021/12/11 09:48:48;;;;;;;4.68;2.67;;;;;;;0.77;100.00;93497.31;4894481;29;20033;-88
2021/12/11 09:51:17;;;;;;;5.38;2.67;;;;;;;0.72;100.00;93499.75;4886428;29;20025;-88
2021/12/11 09:53:47;;;;;;;4.15;2.25;;;;;;;0.61;100.00;93502.16;4904125;29;20062;-87
2021/12/11 09:56:24;;;;;;;5.95;2.72;;;;;;;0.68;100.00;93507.94;4917160;29;20128;-88
2021/12/11 09:58:49;;;;;;;4.38;2.20;;;;;;;0.67;100.00;93505.63;4920914;29;20035;-88
2021/12/11 10:01:28;;;;;;;3.17;2.10;;;;;;;0.84;100.00;93511.63;4904801;29;20434;-88
2021/12/11 10:04:01;;;;;;;6.05;2.10;;;;;;;0.77;100.00;93515.34;4886462;29;20032;-87
2021/12/11 10:07:23;;;;;;;4.40;2.50;;;;;;;0.67;100.00;93521.09;4915037;29;20530;-88
2021/12/11 10:09:46;;;;;;;4.55;2.30;;;;;;;0.94;100.00;93518.03;4913633;29;20032;-88
2021/12/11 10:12:15;;;;;;;4.20;2.20;;;;;;;0.79;100.00;93528.81;4917118;29;20040;-88
2021/12/11 10:15:09;;;;;;;6.07;3.40;;;;;;;0.95;100.00;93525.53;4903523;29;20374;-88
2021/12/11 10:17:43;;;;;;;4.10;2.30;;;;;;;0.94;100.00;93533.50;4918596;29;20111;-88
2021/12/11 10:20:20;;;;;;;6.32;3.80;;;;;;;0.83;100.00;93528.13;4904458;29;20043;-88
2021/12/11 10:22:47;;;;;;;6.38;3.60;;;;;;;0.97;100.00;93517.56;4904305;29;20028;-88
2021/12/11 10:25:21;;;;;;;5.65;3.22;;;;;;;1.02;100.00;93527.97;4916731;29;20036;-88
2021/12/11 10:27:48;;;;;;;4.38;2.35;;;;;;;0.94;100.00;93531.69;4904560;29;20060;-88
2021/12/11 10:30:19;;;;;;;4.70;2.92;;;;;;;1.23;100.00;93533.53;4921495;29;20032;-87
2021/12/11 10:32:44;;;;;;;4.53;2.63;;;;;;;1.32;100.00;93534.72;4919622;29;20036;-87
2021/12/11 10:35:15;;;;;;;4.47;2.75;;;;;;;1.42;100.00;93534.13;4915272;29;20098;-87
2021/12/11 10:37:41;;;;;;;5.43;2.70;;;;;;;1.60;100.00;93537.56;4903480;29;20442;-87
2021/12/11 10:40:16;;;;;;;6.20;2.55;;;;;;;1.69;100.00;93538.75;4904311;29;20036;-87
2021/12/11 10:42:43;;;;;;;5.18;2.90;;;;;;;1.63;100.00;93540.44;4920238;29;20131;-88
2021/12/11 10:45:12;;;;;;;4.10;2.40;;;;;;;1.98;100.00;93552.44;4884909;29;20037;-86
2021/12/11 10:47:42;;;;;;;5.20;2.20;;;;;;;1.89;100.00;93547.88;4901736;29;20115;-87
2021/12/11 10:50:15;;;;;;;6.22;2.22;;;;;;;1.79;100.00;93556.22;4916754;29;20079;-87
2021/12/11 10:52:41;;;;;;;3.50;2.08;;;;;;;1.87;100.00;93557.66;4904071;29;20031;-87
2021/12/11 10:55:11;;;;;;;3.97;2.03;;;;;;;1.88;100.00;93561.81;4903247;29;20107;-86
2021/12/11 10:57:37;;;;;;;3.63;2.22;;;;;;;2.14;100.00;93563.00;4903761;29;20445;-87
2021/12/11 11:00:07;;;;;;;4.15;2.20;;;;;;;1.93;100.00;93572.22;4914239;29;20036;-86
2021/12/11 11:02:32;;;;;;;9.45;4.05;;;;;;;2.01;100.00;93563.31;4902022;29;20127;-87
2021/12/11 11:05:06;;;;;;;3.33;1.80;;;;;;;2.23;100.00;93571.16;4903485;29;20079;-86
2021/12/11 11:07:32;;;;;;;3.58;1.90;;;;;;;2.15;100.00;93574.13;4904220;29;20433;-86
2021/12/11 11:10:00;;;;;;;4.30;2.25;;;;;;;2.21;100.00;93573.19;4903639;29;20059;-87
2021/12/11 11:12:27;;;;;;;4.35;2.22;;;;;;;2.34;100.00;93579.84;4885788;29;20032;-87
2021/12/11 11:14:54;;;;;;;3.17;1.85;;;;;;;2.43;100.00;93572.47;4884583;29;20115;-88
2021/12/11 11:17:22;;;;;;;5.10;2.40;;;;;;;2.41;100.00;93572.72;4900657;29;20036;-87
2021/12/11 11:19:49;;;;;;;3.85;1.95;;;;;;;2.50;100.00;93573.88;4898877;29;20402;-87
2021/12/11 11:22:25;;;;;;;5.28;1.80;;;;;;;2.68;100.00;93583.22;4884159;29;20443;-87
2021/12/11 11:25:15;;;;;;;5.00;2.58;;;;;;;2.64;100.00;93582.13;4903358;29;20024;-87
2021/12/11 11:27:44;;;;;;;5.80;2.20;;;;;;;2.69;100.00;93574.44;4886614;29;20469;-87
2021/12/11 11:30:14;;;;;;;3.83;2.08;;;;;;;2.74;100.00;93581.47;4903471;29;20045;-87
2021/12/11 11:32:40;;;;;;;3.80;2.00;;;;;;;2.84;100.00;93586.00;4903741;29;20043;-87
2021/12/11 11:35:09;;;;;;;4.60;2.10;;;;;;;2.62;100.00;93591.94;4890972;29;20037;-88
2021/12/11 11:37:35;;;;;;;3.13;2.00;;;;;;;2.65;100.00;93583.69;4891807;29;20123;-88
2021/12/11 11:40:07;;;;;;;3.40;1.85;;;;;;;2.54;100.00;93585.34;4892410;29;20486;-87
2021/12/11 11:42:34;;;;;;;3.95;2.25;;;;;;;2.46;100.00;93592.72;4893425;29;20092;-87
2021/12/11 11:45:00;;;;;;;4.38;1.90;;;;;;;2.52;100.00;93587.38;4894005;29;20078;-87